Time;durP1;ratioP1;P1;durP2;ratioP2;P2;SDS_P1;SDS_P2;PMS_P1;PMS_P2;Temp;Humidity;BMP_temperature;BMP_pressure;BME280_temperature;BME280_humidity;BME280_pressure;Samples;Min_cycle;Max_cycle;Signal;HPM_P1;HPM_P2
2023/03/16 00:00:12;;;;;;;;;7.33;7.33;;;;;10.46;51.61;101501.81;2045526;28;2728382;-75
2023/03/16 00:01:25;;;;;;;;;9.33;8.50;;;;;10.47;51.70;101494.78;2052046;28;2752384;-76
2023/03/16 00:02:40;;;;;;;;;7.33;7.00;;;;;10.48;51.18;101501.78;2020571;28;2736054;-76
2023/03/16 00:03:53;;;;;;;;;5.00;5.00;;;;;10.47;51.32;101497.41;2044562;28;2748205;-76
2023/03/16 00:05:08;;;;;;;;;7.00;6.50;;;;;10.47;51.57;101500.91;2021032;28;2742958;-76
2023/03/16 00:06:21;;;;;;;;;8.83;6.67;;;;;10.46;51.58;101498.31;2044325;28;2746494;-76
2023/03/16 00:07:33;;;;;;;;;11.00;8.00;;;;;10.47;50.98;101498.28;1994159;28;2763936;-76
2023/03/16 00:08:46;;;;;;;;;6.33;6.17;;;;;10.46;51.29;101488.69;2044720;28;2735677;-76
2023/03/16 00:09:56;;;;;;;;;9.67;7.67;;;;;10.47;51.11;101495.66;2016339;28;2759793;-76
2023/03/16 00:11:07;;;;;;;;;7.67;6.00;;;;;10.46;51.25;101493.06;2051610;27;2741935;-76
2023/03/16 00:12:21;;;;;;;;;8.83;8.83;;;;;10.46;51.42;101485.19;2046576;27;2733597;-76
2023/03/16 00:13:34;;;;;;;;;8.67;7.17;;;;;10.45;51.29;101483.44;2045138;28;2736100;-76
2023/03/16 00:14:47;;;;;;;;;10.33;8.33;;;;;10.45;51.44;101486.06;2017206;28;2761783;-76
2023/03/16 00:16:06;;;;;;;;;10.00;6.00;;;;;10.45;51.72;101478.19;2044643;28;2739845;-76
2023/03/16 00:17:20;;;;;;;;;7.67;7.00;;;;;10.44;51.51;101484.34;2020094;28;2739848;-75
2023/03/16 00:18:37;;;;;;;;;10.00;7.00;;;;;10.44;51.73;101484.34;2017922;28;2763153;-75
2023/03/16 00:19:53;;;;;;;;;8.83;8.00;;;;;10.44;51.79;101484.34;2044274;28;2749231;-75
2023/03/16 00:21:07;;;;;;;;;8.83;8.83;;;;;10.42;51.43;101483.53;2044041;28;2737821;-75
2023/03/16 00:22:22;;;;;;;;;11.17;7.00;;;;;10.41;51.37;101480.03;2019904;28;2748182;-76
2023/03/16 00:23:35;;;;;;;;;8.17;6.50;;;;;10.42;51.66;101480.91;2022113;28;2737764;-76
2023/03/16 00:24:48;;;;;;;;;9.83;6.83;;;;;10.39;51.66;101473.94;2052751;27;2749226;-76
2023/03/16 00:26:05;;;;;;;;;8.33;8.33;;;;;10.39;51.74;101479.19;2043381;28;2741960;-75
2023/03/16 00:27:21;;;;;;;;;9.67;8.33;;;;;10.38;51.61;101477.44;2043058;28;2744030;-75
2023/03/16 00:28:35;;;;;;;;;10.17;8.33;;;;;10.37;51.95;101473.06;2020416;28;2762773;-76
2023/03/16 00:29:47;;;;;;;;;9.00;7.00;;;;;10.38;51.56;101476.56;1993521;28;2749327;-76
2023/03/16 00:30:57;;;;;;;;;8.33;8.00;;;;;10.37;51.88;101472.22;2018255;28;2743056;-75
2023/03/16 00:32:10;;;;;;;;;8.60;7.40;;;;;10.35;51.75;101475.75;2043705;28;2741928;-76
2023/03/16 00:33:25;;;;;;;;;9.17;8.50;;;;;10.35;51.56;101467.84;2021643;28;2747656;-76
2023/03/16 00:34:35;;;;;;;;;9.00;8.33;;;;;10.33;52.06;101467.03;2017138;28;2750417;-76
2023/03/16 00:36:00;;;;;;;;;6.33;5.00;;;;;10.33;51.66;101469.66;2035455;28;2740891;-76
2023/03/16 00:37:16;;;;;;;;;7.67;7.00;;;;;10.31;51.37;101455.69;2043982;28;2734138;-76
2023/03/16 00:38:35;;;;;;;;;8.33;8.33;;;;;10.30;51.55;101459.19;2043439;28;2744031;-76
2023/03/16 00:39:49;;;;;;;;;10.17;7.00;;;;;10.29;51.75;101456.63;2043534;28;2751307;-76
2023/03/16 00:41:04;;;;;;;;;8.33;8.33;;;;;10.28;51.88;101468.00;2020776;28;2750300;-76
2023/03/16 00:42:18;;;;;;;;;7.33;6.67;;;;;10.27;51.84;101466.31;2021154;28;2735742;-76
2023/03/16 00:43:39;;;;;;;;;8.00;8.00;;;;;10.26;52.11;101462.78;2010447;28;2746106;-75
2023/03/16 00:44:56;;;;;;;;;6.50;5.83;;;;;10.24;51.61;101459.34;2045850;27;2736818;-75
2023/03/16 00:46:11;;;;;;;;;8.83;8.00;;;;;10.22;51.29;101461.13;2044370;28;2730501;-76
2023/03/16 00:47:24;;;;;;;;;10.00;8.33;;;;;10.21;51.36;101464.66;1993170;28;3474222;-76
2023/03/16 00:48:41;;;;;;;;;7.50;7.00;;;;;10.17;51.44;101458.59;2043957;28;2737766;-76
2023/03/16 00:49:55;;;;;;;;;7.50;6.00;;;;;10.17;51.56;101458.59;2043514;28;2740926;-76
2023/03/16 00:51:12;;;;;;;;;9.33;7.50;;;;;10.15;51.74;101452.50;2044025;28;2751677;-76
2023/03/16 00:52:26;;;;;;;;;8.00;7.67;;;;;10.14;51.91;101453.41;2021422;28;2739272;-75
2023/03/16 00:53:39;;;;;;;;;9.00;9.00;;;;;10.11;52.41;101446.44;2017700;28;3456495;-75
2023/03/16 00:54:52;;;;;;;;;10.00;7.33;;;;;10.10;51.79;101441.22;2015853;28;3485653;-75
2023/03/16 00:56:06;;;;;;;;;8.17;6.83;;;;;10.09;51.54;101439.50;2043721;28;2746103;-76
2023/03/16 00:57:21;;;;;;;;;9.50;7.00;;;;;10.06;51.84;101436.91;2044158;28;2750261;-76
2023/03/16 00:58:37;;;;;;;;;7.33;6.00;;;;;10.04;51.66;101426.44;2044214;28;2737805;-75
2023/03/16 00:59:51;;;;;;;;;9.00;7.17;;;;;10.03;51.54;101422.06;2042800;28;2745536;-75
2023/03/16 01:01:05;;;;;;;;;8.33;8.33;;;;;10.01;51.63;101422.13;2036739;28;2746126;-76
2023/03/16 01:02:22;;;;;;;;;7.17;7.17;;;;;9.98;51.77;101427.41;2020520;28;2732561;-75
2023/03/16 01:03:35;;;;;;;;;9.50;7.17;;;;;9.98;51.43;101431.81;2044079;28;2746130;-76
2023/03/16 01:04:50;;;;;;;;;4.67;3.83;;;;;9.97;51.98;101435.34;2020821;28;2750265;-75
2023/03/16 01:06:13;;;;;;;;;8.17;7.00;;;;;9.95;52.11;101437.97;2020412;28;2746546;-75
2023/03/16 01:07:27;;;;;;;;;9.50;8.00;;;;;9.95;52.25;101452.91;2044672;28;2745076;-75
2023/03/16 01:08:40;;;;;;;;;7.50;7.33;;;;;9.93;51.91;101447.66;2020139;28;2732616;-75
2023/03/16 01:09:54;;;;;;;;;8.50;8.50;;;;;9.92;51.93;101445.94;2044356;28;2731546;-76
2023/03/16 01:11:09;;;;;;;;;8.00;8.00;;;;;9.91;52.46;101444.19;2043272;28;2738815;-75
2023/03/16 01:12:22;;;;;;;;;7.17;7.17;;;;;9.90;51.81;101443.31;2044033;28;2741928;-76
2023/03/16 01:13:37;;;;;;;;;8.00;6.67;;;;;9.89;52.14;101444.22;2043638;28;2740899;-76
2023/03/16 01:14:48;;;;;;;;;9.67;7.00;;;;;9.89;51.86;101446.84;1995142;28;2753370;-75
2023/03/16 01:15:59;;;;;;;;;8.25;6.50;;;;;9.88;52.33;101447.75;2042794;28;2737758;-75
2023/03/16 01:17:14;;;;;;;;;8.50;6.83;;;;;9.88;52.32;101458.25;2042214;28;2742989;-75
2023/03/16 01:18:27;;;;;;;;;6.50;6.50;;;;;9.86;52.03;101460.03;2044160;28;2744047;-76
2023/03/16 01:19:40;;;;;;;;;8.33;6.67;;;;;9.86;52.20;101459.16;2044596;28;2723175;-75
2023/03/16 01:20:52;;;;;;;;;12.00;8.00;;;;;9.86;51.60;101459.16;2017144;28;2752848;-75
2023/03/16 01:22:06;;;;;;;;;8.17;8.00;;;;;9.86;52.08;101459.16;2044256;28;2737804;-75
2023/03/16 01:23:20;;;;;;;;;8.67;5.17;;;;;9.85;52.30;101463.53;2019364;28;2756540;-75
2023/03/16 01:24:31;;;;;;;;;11.67;8.33;;;;;9.85;52.20;101452.19;2015547;28;3483576;-75
2023/03/16 01:25:51;;;;;;;;;8.00;7.83;;;;;9.85;52.39;101444.31;2043063;28;2733629;-76
2023/03/16 01:27:06;;;;;;;;;9.67;7.83;;;;;9.84;52.49;101425.06;2043767;28;2735687;-76
2023/03/16 01:28:23;;;;;;;;;8.00;8.00;;;;;9.83;52.71;101404.94;2020458;28;2729444;-76
2023/03/16 01:29:36;;;;;;;;;8.50;6.83;;;;;9.83;52.28;101397.06;2042472;28;2744011;-76
2023/03/16 01:30:56;;;;;;;;;8.83;7.83;;;;;9.82;52.43;101392.72;2043660;28;2746114;-75
2023/03/16 01:32:10;;;;;;;;;6.50;5.67;;;;;9.81;52.51;101404.13;2043466;28;2742337;-75
2023/03/16 01:33:22;;;;;;;;;7.33;6.33;;;;;9.81;52.46;101409.38;2010676;28;2736805;-75
2023/03/16 01:34:35;;;;;;;;;7.83;7.33;;;;;9.79;52.72;101412.03;2036390;28;2744062;-75
2023/03/16 01:36:02;;;;;;;;;9.50;7.50;;;;;9.78;52.29;101406.78;2042368;28;2750265;-75
2023/03/16 01:37:16;;;;;;;;;7.33;7.17;;;;;9.77;52.66;101402.44;2020515;28;2732545;-75
2023/03/16 01:38:29;;;;;;;;;7.83;7.17;;;;;9.74;52.67;101405.13;2043599;28;2730478;-75
2023/03/16 01:39:39;;;;;;;;;11.67;8.00;;;;;9.73;52.57;101406.03;2016888;28;2767085;-75
2023/03/16 01:40:52;;;;;;;;;11.00;7.00;;;;;9.71;52.48;101402.56;2034090;28;3485675;-75
2023/03/16 01:42:05;;;;;;;;;7.67;7.33;;;;;9.70;52.49;101403.47;2043729;28;2742440;-75
2023/03/16 01:43:21;;;;;;;;;10.67;8.67;;;;;9.70;52.53;101406.09;2043543;28;2757009;-75
2023/03/16 01:45:00;;;;;;;;;7.50;6.00;;;;;9.67;52.39;101402.63;2020112;28;2730482;-75
2023/03/16 01:46:23;;;;;;;;;6.83;6.83;;;;;9.65;52.42;101401.81;2040512;28;2729492;-76
2023/03/16 01:47:37;;;;;;;;;9.83;9.17;;;;;9.63;52.13;101393.06;2039392;28;2761225;-75
2023/03/16 01:49:23;;;;;;;;;10.67;6.33;;;;;9.61;52.70;101400.09;1990916;28;3461747;-75
2023/03/16 01:50:36;;;;;;;;;8.00;7.00;;;;;9.61;52.19;101388.72;2044413;28;2738808;-75
2023/03/16 01:52:01;;;;;;;;;10.00;9.00;;;;;9.60;52.45;101401.00;2017596;28;2758701;-75
2023/03/16 01:53:14;;;;;;;;;7.33;7.33;;;;;9.58;52.78;101392.28;2041540;28;2739868;-75
2023/03/16 01:54:41;;;;;;;;;9.67;7.67;;;;;9.57;52.68;101394.06;2036133;28;2752353;-75
2023/03/16 01:55:54;;;;;;;;;10.67;9.00;;;;;9.56;52.50;101391.44;2018012;28;2755486;-75
2023/03/16 01:57:25;;;;;;;;;7.83;7.00;;;;;9.55;52.51;101397.59;2044574;28;2741924;-76
2023/03/16 01:58:36;;;;;;;;;10.00;9.00;;;;;9.54;53.17;101401.09;2012502;28;2766947;-75
2023/03/16 02:00:08;;;;;;;;;8.83;6.00;;;;;9.52;52.76;101401.16;2045004;28;2729940;-75
2023/03/16 02:01:19;;;;;;;;;9.00;7.33;;;;;9.51;53.12;101395.91;2014594;28;3455522;-76
2023/03/16 02:02:32;;;;;;;;;8.60;7.80;;;;;9.49;52.92;101393.31;2045004;28;2736738;-75
2023/03/16 02:03:43;;;;;;;;;13.00;8.00;;;;;9.49;52.14;101392.44;1995282;28;2768116;-75
2023/03/16 02:05:12;;;;;;;;;7.17;6.33;;;;;9.48;52.98;101390.72;2045519;28;2740982;-75
2023/03/16 02:06:23;;;;;;;;;10.00;9.00;;;;;9.46;52.68;101382.88;2018020;28;2757584;-76
2023/03/16 02:07:41;;;;;;;;;10.00;9.00;;;;;9.46;52.67;101380.25;2031367;28;3494070;-76
2023/03/16 02:08:56;;;;;;;;;9.00;8.50;;;;;9.44;52.81;101379.41;2044106;28;2746107;-75
2023/03/16 02:10:12;;;;;;;;;8.67;8.67;;;;;9.44;53.24;101377.66;2044549;28;2748246;-75
2023/03/16 02:11:27;;;;;;;;;8.67;7.67;;;;;9.43;51.94;101373.28;2043944;28;2740920;-76
2023/03/16 02:12:37;;;;;;;;;11.33;8.33;;;;;9.42;52.99;101371.56;2011488;28;2763819;-75
2023/03/16 02:13:51;;;;;;;;;9.60;8.80;;;;;9.42;53.24;101370.72;2043793;28;2753383;-76
2023/03/16 02:15:05;;;;;;;;;11.33;8.33;;;;;9.41;52.88;101367.22;2044076;28;2761755;-75
2023/03/16 02:16:21;;;;;;;;;11.17;9.00;;;;;9.41;52.57;101366.34;2020264;28;2766998;-76
2023/03/16 02:17:34;;;;;;;;;8.00;8.00;;;;;9.40;52.80;101368.13;1994571;28;2739853;-75
2023/03/16 02:18:49;;;;;;;;;9.33;6.33;;;;;9.38;52.78;101363.78;2015815;28;3467949;-75
2023/03/16 02:20:33;;;;;;;;;6.50;6.00;;;;;9.37;52.72;101368.16;2038549;28;2744047;-76
2023/03/16 02:21:54;;;;;;;;;8.33;6.00;;;;;9.36;53.17;101366.41;2044132;28;2740902;-75
2023/03/16 02:23:17;;;;;;;;;8.50;8.50;;;;;9.34;52.93;101358.59;2044635;28;2733610;-75
2023/03/16 02:24:30;;;;;;;;;8.50;7.00;;;;;9.34;53.12;101368.22;2045931;28;2730522;-75
2023/03/16 02:26:07;;;;;;;;;7.00;6.00;;;;;9.33;53.14;101369.97;2018068;28;2732597;-76
2023/03/16 02:27:25;;;;;;;;;8.50;6.83;;;;;9.33;52.67;101374.38;2042243;28;2728399;-75
2023/03/16 02:29:20;;;;;;;;;7.00;7.00;;;;;9.31;52.66;101365.66;2044598;28;2729929;-75
2023/03/16 02:30:33;;;;;;;;;7.50;6.00;;;;;9.30;52.41;101361.28;2033506;28;2744094;-75
2023/03/16 02:31:45;;;;;;;;;9.67;7.00;;;;;9.28;53.00;101363.09;2008544;28;2754448;-75
2023/03/16 02:32:59;;;;;;;;;8.00;7.33;;;;;9.27;52.79;101361.34;2035792;28;2746186;-75
2023/03/16 02:34:15;;;;;;;;;7.83;5.67;;;;;9.27;52.63;101361.34;2036437;28;2730546;-75
2023/03/16 02:35:28;;;;;;;;;8.83;8.00;;;;;9.24;52.45;101354.38;2035215;28;2737825;-75
2023/03/16 02:36:45;;;;;;;;;8.67;6.67;;;;;9.24;52.98;101362.25;2043508;28;2739956;-75
2023/03/16 02:37:58;;;;;;;;;8.00;7.50;;;;;9.24;52.53;101362.25;2020821;28;2733658;-75
2023/03/16 02:39:12;;;;;;;;;9.67;6.17;;;;;9.23;52.56;101360.53;2044125;28;2753386;-75
2023/03/16 02:40:28;;;;;;;;;5.67;4.67;;;;;9.22;52.66;101362.31;2021760;28;2732572;-75
2023/03/16 02:41:41;;;;;;;;;6.50;6.17;;;;;9.21;52.71;101359.72;2044806;28;2737765;-76
2023/03/16 02:43:01;;;;;;;;;7.67;7.33;;;;;9.20;52.40;101353.59;2044514;28;2730489;-75
2023/03/16 02:44:23;;;;;;;;;6.00;6.00;;;;;9.19;52.92;101353.59;2044911;28;2739893;-75
2023/03/16 02:45:50;;;;;;;;;7.50;5.00;;;;;9.20;52.72;101355.34;2045201;28;2741946;-76
2023/03/16 02:47:09;;;;;;;;;5.00;5.00;;;;;9.19;53.27;101358.84;2044502;28;2734621;-76
2023/03/16 02:48:36;;;;;;;;;8.17;6.67;;;;;9.18;52.94;101357.13;2044972;28;2735702;-76
2023/03/16 02:49:50;;;;;;;;;7.83;6.00;;;;;9.17;52.79;101347.53;2044819;28;2737757;-75
2023/03/16 02:51:03;;;;;;;;;8.33;7.33;;;;;9.16;52.92;101345.81;2044810;28;2742029;-76
2023/03/16 02:52:16;;;;;;;;;9.00;8.00;;;;;9.15;52.84;101341.44;2044862;28;2733694;-76
2023/03/16 02:53:29;;;;;;;;;6.50;6.50;;;;;9.13;52.91;101338.84;2042855;28;2735697;-76
2023/03/16 02:54:43;;;;;;;;;7.17;7.17;;;;;9.14;52.73;101339.69;2045627;28;2736787;-75
2023/03/16 02:55:56;;;;;;;;;7.67;6.50;;;;;9.13;52.73;101336.22;2044237;28;2733631;-76
2023/03/16 02:57:09;;;;;;;;;7.50;6.50;;;;;9.12;53.04;101331.88;2044500;28;2738811;-76
2023/03/16 02:58:22;;;;;;;;;8.17;6.17;;;;;9.10;53.06;101328.41;2044035;28;2738871;-76
2023/03/16 02:59:36;;;;;;;;;5.33;5.33;;;;;9.10;53.50;101325.78;2043758;28;2736769;-76
2023/03/16 03:00:49;;;;;;;;;7.00;6.17;;;;;9.08;52.99;101324.97;2044546;28;2737769;-76
2023/03/16 03:02:02;;;;;;;;;7.67;7.67;;;;;9.07;52.70;101331.06;2044243;28;2731515;-76
2023/03/16 03:03:15;;;;;;;;;8.83;6.00;;;;;9.05;53.00;101320.63;2043865;28;2740978;-76
2023/03/16 03:04:28;;;;;;;;;5.67;5.50;;;;;9.05;52.93;101319.75;2043798;28;2748177;-76
2023/03/16 03:05:42;;;;;;;;;9.17;7.33;;;;;9.02;53.09;101320.66;2044323;28;2745053;-76
2023/03/16 03:07:00;;;;;;;;;6.83;6.17;;;;;9.02;53.03;101314.56;2053740;28;2735714;-76
2023/03/16 03:08:11;;;;;;;;;8.00;7.33;;;;;8.99;52.87;101313.72;2024882;28;2745063;-76
2023/03/16 03:09:22;;;;;;;;;10.00;6.33;;;;;8.99;52.88;101307.59;2024091;28;2762876;-76
2023/03/16 03:10:33;;;;;;;;;4.00;4.00;;;;;8.97;52.92;101312.88;2041515;28;2754479;-76
2023/03/16 03:11:46;;;;;;;;;6.67;6.33;;;;;8.96;53.31;101321.63;2044061;28;2734700;-76
2023/03/16 03:12:59;;;;;;;;;4.17;4.17;;;;;8.96;53.17;101318.16;2038156;28;2752351;-76
2023/03/16 03:14:10;;;;;;;;;10.00;8.33;;;;;8.94;53.48;101315.56;2019301;28;2755582;-76
2023/03/16 03:15:21;;;;;;;;;6.00;6.00;;;;;8.94;53.36;101320.78;2050661;28;2734680;-76
2023/03/16 03:16:34;;;;;;;;;7.50;6.33;;;;;8.93;53.35;101319.09;2044802;28;2732589;-76
2023/03/16 03:17:44;;;;;;;;;6.67;6.67;;;;;8.90;52.81;101311.25;2021415;28;2732625;-76
2023/03/16 03:18:57;;;;;;;;;6.67;6.33;;;;;8.89;53.58;101309.50;2043892;28;2732593;-76
2023/03/16 03:20:18;;;;;;;;;7.50;6.50;;;;;8.88;53.06;101305.19;2042863;28;2739836;-76
2023/03/16 03:21:31;;;;;;;;;9.50;7.33;;;;;8.86;53.19;101299.97;2043898;28;2735681;-76
2023/03/16 03:22:47;;;;;;;;;8.67;7.50;;;;;8.85;53.20;101302.59;2041950;28;2738180;-76
2023/03/16 03:24:00;;;;;;;;;6.00;6.00;;;;;8.85;53.09;101305.22;2045407;28;2730485;-75
2023/03/16 03:25:15;;;;;;;;;7.33;6.50;;;;;8.84;53.29;101306.13;2044159;28;2741961;-76
2023/03/16 03:26:28;;;;;;;;;9.33;7.50;;;;;8.82;52.76;101303.53;2045247;28;2732644;-76
2023/03/16 03:27:43;;;;;;;;;7.17;7.17;;;;;8.81;53.06;101303.56;2044686;28;2738807;-76
2023/03/16 03:28:56;;;;;;;;;7.00;7.00;;;;;8.80;53.34;101304.44;2045080;28;2736746;-76
2023/03/16 03:30:11;;;;;;;;;6.50;6.00;;;;;8.80;53.57;101312.28;2043187;28;2734637;-76
2023/03/16 03:31:24;;;;;;;;;8.00;7.00;;;;;8.77;53.69;101303.59;2038842;28;2745735;-76
2023/03/16 03:32:39;;;;;;;;;8.17;6.50;;;;;8.76;53.37;101311.50;2036387;28;2729452;-75
2023/03/16 03:33:52;;;;;;;;;8.00;6.17;;;;;8.76;53.69;101315.00;2052246;27;2746163;-76
2023/03/16 03:35:07;;;;;;;;;7.33;5.67;;;;;8.74;53.68;101313.28;2057274;27;2739853;-75
2023/03/16 03:36:21;;;;;;;;;7.83;7.83;;;;;8.74;53.28;101308.03;2044306;28;2731512;-75
2023/03/16 03:37:34;;;;;;;;;7.33;6.83;;;;;8.72;53.57;101313.28;2045193;28;2731592;-75
2023/03/16 03:38:48;;;;;;;;;8.00;7.50;;;;;8.73;53.53;101315.03;2044815;28;2746556;-75
2023/03/16 03:40:10;;;;;;;;;0.00;0.00;;;;;8.72;53.74;101307.16;2044951;28;2724220;-75
2023/03/16 03:41:23;;;;;;;;;6.67;5.50;;;;;8.70;53.76;101303.72;2044391;28;2732573;-75
2023/03/16 03:42:38;;;;;;;;;6.33;6.00;;;;;8.70;53.43;101309.81;2056395;27;2743013;-75
2023/03/16 03:43:48;;;;;;;;;9.33;6.00;;;;;8.68;53.81;101298.50;2022469;28;3462741;-75
2023/03/16 03:44:59;;;;;;;;;8.00;7.00;;;;;8.67;53.54;101299.38;2040851;28;2744026;-75
2023/03/16 03:46:12;;;;;;;;;8.50;6.50;;;;;8.65;53.61;101291.56;2020933;28;2735152;-75
2023/03/16 03:47:26;;;;;;;;;8.50;7.67;;;;;8.66;54.29;101292.44;2043791;28;2735717;-75
2023/03/16 03:48:39;;;;;;;;;6.50;6.50;;;;;8.65;53.56;101296.81;2045662;28;2730501;-75
2023/03/16 03:49:53;;;;;;;;;8.50;6.50;;;;;8.65;53.94;101298.53;2044717;28;2739848;-75
2023/03/16 03:51:06;;;;;;;;;6.17;6.17;;;;;8.64;54.41;101299.47;2021475;28;2749283;-75
2023/03/16 03:52:19;;;;;;;;;6.17;6.17;;;;;8.63;53.47;101297.72;2044243;28;2731009;-75
2023/03/16 03:53:32;;;;;;;;;7.00;7.00;;;;;8.62;53.85;101303.81;2044361;28;2736747;-75
2023/03/16 03:54:46;;;;;;;;;7.17;4.50;;;;;8.62;54.16;101301.22;2043131;28;2752435;-75
2023/03/16 03:55:59;;;;;;;;;10.00;6.67;;;;;8.62;53.85;101302.06;2042681;28;2758163;-75
2023/03/16 03:57:12;;;;;;;;;7.83;6.33;;;;;8.62;54.61;101298.59;2044016;28;2733599;-75
2023/03/16 03:58:25;;;;;;;;;8.50;7.00;;;;;8.61;54.07;101299.50;2044806;28;2730493;-75
2023/03/16 03:59:41;;;;;;;;;6.00;6.00;;;;;8.61;53.59;101304.75;2017281;28;2744019;-75
2023/03/16 04:00:54;;;;;;;;;8.33;6.00;;;;;8.60;54.34;101298.63;2044189;28;2740960;-75
2023/03/16 04:02:08;;;;;;;;;6.17;6.17;;;;;8.59;54.13;101296.03;2042354;28;2746154;-75
2023/03/16 04:03:21;;;;;;;;;6.33;6.33;;;;;8.60;53.55;101297.75;2044042;28;2738878;-75
2023/03/16 04:04:35;;;;;;;;;11.33;6.83;;;;;8.59;54.13;101301.28;2036919;28;2746481;-75
2023/03/16 04:05:48;;;;;;;;;7.50;6.50;;;;;8.58;54.12;101289.94;2016898;28;2742976;-75
2023/03/16 04:07:02;;;;;;;;;8.00;5.83;;;;;8.59;53.64;101293.41;2051925;28;2729441;-76
2023/03/16 04:08:15;;;;;;;;;5.50;4.00;;;;;8.56;53.90;101283.81;2045165;28;2742996;-76
2023/03/16 04:09:32;;;;;;;;;5.00;5.00;;;;;8.55;53.55;101277.69;2043450;28;2745066;-75
2023/03/16 04:10:46;;;;;;;;;6.33;5.83;;;;;8.55;53.95;101285.56;2043532;28;2750285;-75
2023/03/16 04:12:00;;;;;;;;;7.67;7.00;;;;;8.54;54.20;101278.56;2044115;28;2732557;-76
2023/03/16 04:13:13;;;;;;;;;6.17;6.17;;;;;8.55;54.05;101277.69;2044679;28;2729421;-75
2023/03/16 04:14:27;;;;;;;;;6.00;6.00;;;;;8.53;53.86;101274.25;2043883;28;2738830;-75
2023/03/16 04:15:40;;;;;;;;;5.83;5.83;;;;;8.52;53.87;101279.53;2043979;28;2738800;-75
2023/03/16 04:16:54;;;;;;;;;9.33;7.00;;;;;8.52;53.87;101279.53;2043162;28;2754432;-75
2023/03/16 04:18:07;;;;;;;;;4.50;4.50;;;;;8.51;54.47;101272.53;2044419;28;2741960;-75
2023/03/16 04:19:22;;;;;;;;;7.17;5.67;;;;;8.51;53.62;101273.41;2044551;28;2737792;-75
2023/03/16 04:20:35;;;;;;;;;8.17;6.17;;;;;8.50;53.95;101279.53;2041960;28;2734648;-75
2023/03/16 04:21:50;;;;;;;;;10.17;7.00;;;;;8.50;54.23;101276.03;2043781;28;2761761;-75
2023/03/16 04:23:04;;;;;;;;;6.17;6.17;;;;;8.48;54.30;101273.44;2021055;28;2742980;-75
2023/03/16 04:24:18;;;;;;;;;4.50;4.00;;;;;8.48;54.09;101273.44;2043829;28;2736740;-75
2023/03/16 04:25:31;;;;;;;;;5.83;4.83;;;;;8.48;54.13;101269.97;2044240;28;2746110;-75
2023/03/16 04:26:45;;;;;;;;;5.17;4.00;;;;;8.47;54.51;101266.47;2043712;28;2752352;-75
2023/03/16 04:27:58;;;;;;;;;6.67;4.50;;;;;8.46;54.49;101264.75;2044234;28;2745085;-75
2023/03/16 04:29:13;;;;;;;;;4.67;4.67;;;;;8.47;53.83;101271.72;2044417;28;2750908;-75
2023/03/16 04:30:26;;;;;;;;;9.00;6.33;;;;;8.46;54.03;101263.88;2042564;28;2737792;-75
2023/03/16 04:31:41;;;;;;;;;7.17;6.67;;;;;8.44;53.69;101264.75;2043805;28;2740895;-75
2023/03/16 04:32:55;;;;;;;;;4.17;4.00;;;;;8.44;54.21;101253.44;2044326;28;2746101;-75
2023/03/16 04:34:08;;;;;;;;;9.67;7.67;;;;;8.44;54.62;101261.28;2042969;28;2737773;-75
2023/03/16 04:35:21;;;;;;;;;8.33;4.67;;;;;8.43;54.19;101257.81;2037459;28;2754507;-75
2023/03/16 04:36:35;;;;;;;;;6.83;5.50;;;;;8.44;54.18;101253.44;2044101;28;2739864;-75
2023/03/16 04:37:48;;;;;;;;;7.17;5.33;;;;;8.42;53.48;101248.19;2044583;28;2737801;-75
2023/03/16 04:39:01;;;;;;;;;4.83;4.67;;;;;8.42;53.89;101248.19;2044416;28;2746591;-75
2023/03/16 04:40:15;;;;;;;;;6.00;4.17;;;;;8.42;54.09;101245.59;2044107;28;2739852;-75
2023/03/16 04:41:28;;;;;;;;;4.67;4.67;;;;;8.42;53.58;101248.19;2044419;28;2746122;-75
2023/03/16 04:42:45;;;;;;;;;5.67;5.67;;;;;8.42;53.76;101253.44;2043121;28;2742057;-75
2023/03/16 04:43:58;;;;;;;;;6.50;5.67;;;;;8.43;53.90;101249.06;2043702;28;2743065;-75
2023/03/16 04:45:13;;;;;;;;;5.17;5.00;;;;;8.42;53.75;101249.97;2044087;28;2746095;-75
2023/03/16 04:46:26;;;;;;;;;6.00;5.50;;;;;8.42;53.65;101248.19;2044649;28;2738356;-75
2023/03/16 04:47:40;;;;;;;;;5.67;4.00;;;;;8.40;53.66;101243.88;2044098;28;2746128;-75
2023/03/16 04:48:57;;;;;;;;;5.00;5.00;;;;;8.39;53.37;101243.03;2044017;28;2750272;-75
2023/03/16 04:50:11;;;;;;;;;4.83;4.33;;;;;8.39;53.49;101244.78;2043339;28;2746097;-75
2023/03/16 04:51:25;;;;;;;;;6.00;4.00;;;;;8.39;53.61;101236.94;2043242;28;2745065;-76
2023/03/16 04:52:38;;;;;;;;;4.33;3.17;;;;;8.38;53.55;101235.19;2045084;28;2740913;-76
2023/03/16 04:53:51;;;;;;;;;6.33;5.00;;;;;8.39;53.51;101236.94;2043074;28;2746099;-75
2023/03/16 04:55:05;;;;;;;;;6.50;5.17;;;;;8.39;53.63;101236.94;2044223;28;2745537;-75
2023/03/16 04:56:18;;;;;;;;;7.00;4.50;;;;;8.38;53.52;101236.06;2044374;28;2746114;-75
2023/03/16 04:57:31;;;;;;;;;7.33;5.67;;;;;8.37;53.45;101239.53;2020422;28;2739856;-75
2023/03/16 04:58:45;;;;;;;;;5.17;5.17;;;;;8.38;54.00;101235.19;2044103;28;2746094;-75
2023/03/16 04:59:58;;;;;;;;;7.83;5.50;;;;;8.38;53.82;101243.03;2043776;28;2744524;-75
2023/03/16 05:01:12;;;;;;;;;8.83;5.33;;;;;8.37;54.21;101242.16;2043924;28;2750302;-75
2023/03/16 05:02:25;;;;;;;;;5.00;4.17;;;;;8.37;53.95;101241.31;2044626;28;2735709;-75
2023/03/16 05:03:39;;;;;;;;;5.67;5.00;;;;;8.37;53.76;101238.72;2042827;28;2748193;-75
2023/03/16 05:04:54;;;;;;;;;7.00;5.33;;;;;8.36;53.67;101239.59;2044133;28;2746591;-75
2023/03/16 05:06:07;;;;;;;;;4.17;3.50;;;;;8.35;53.96;101240.47;2043996;28;2747169;-75
2023/03/16 05:07:20;;;;;;;;;5.00;4.83;;;;;8.35;53.81;101240.47;2042348;28;2743504;-75
2023/03/16 05:08:33;;;;;;;;;7.33;6.33;;;;;8.34;53.89;101239.63;2043466;28;2732561;-75
2023/03/16 05:09:46;;;;;;;;;4.83;4.83;;;;;8.35;54.16;101235.22;2049918;28;2750311;-75
2023/03/16 05:11:00;;;;;;;;;5.33;5.00;;;;;8.35;54.03;101235.22;2043539;28;2746099;-75
2023/03/16 05:12:13;;;;;;;;;6.33;4.50;;;;;8.33;54.01;101233.50;2044440;28;2739868;-75
2023/03/16 05:13:27;;;;;;;;;6.50;5.00;;;;;8.33;54.16;101232.63;2044262;28;2737841;-75
2023/03/16 05:14:40;;;;;;;;;4.50;4.00;;;;;8.32;54.09;101231.75;2044211;28;2746099;-75
2023/03/16 05:15:53;;;;;;;;;5.00;5.00;;;;;8.32;54.15;101231.75;2044013;28;2739856;-75
2023/03/16 05:17:06;;;;;;;;;1.00;1.00;;;;;8.32;53.72;101228.31;2043340;28;2741029;-75
2023/03/16 05:18:20;;;;;;;;;4.50;4.50;;;;;8.32;53.78;101228.31;2040790;28;2735686;-76
2023/03/16 05:19:34;;;;;;;;;5.67;4.00;;;;;8.30;53.54;101225.69;2043318;28;2738810;-75
2023/03/16 05:20:52;;;;;;;;;5.00;4.17;;;;;8.29;53.72;101229.22;2044062;28;2734663;-75
2023/03/16 05:22:05;;;;;;;;;4.17;2.83;;;;;8.29;54.17;101223.09;2043470;28;2749227;-75
2023/03/16 05:23:19;;;;;;;;;1.33;1.33;;;;;8.29;54.06;101217.88;2043680;28;2737781;-75
2023/03/16 05:24:33;;;;;;;;;4.00;4.00;;;;;8.28;54.11;101214.38;2044658;28;2748177;-75
2023/03/16 05:25:46;;;;;;;;;4.00;4.00;;;;;8.28;53.92;101216.13;2044538;28;2739469;-75
2023/03/16 05:27:03;;;;;;;;;4.67;4.67;;;;;8.27;54.06;101214.41;2043899;28;2748182;-75
2023/03/16 05:28:16;;;;;;;;;6.50;5.17;;;;;8.27;54.12;101227.50;2042734;28;2741436;-75
2023/03/16 05:29:33;;;;;;;;;5.83;4.00;;;;;8.26;53.84;101216.16;2042679;28;2749278;-75
2023/03/16 05:30:46;;;;;;;;;4.50;3.00;;;;;8.26;53.85;101223.16;2020018;28;2745110;-75
2023/03/16 05:31:59;;;;;;;;;5.00;5.00;;;;;8.25;54.17;101222.28;2041539;28;2748249;-75
2023/03/16 05:33:12;;;;;;;;;4.50;4.00;;;;;8.25;53.57;101222.28;2042088;28;2754452;-75
2023/03/16 05:34:26;;;;;;;;;6.50;6.00;;;;;8.25;53.67;101214.41;2042573;28;2738866;-75
2023/03/16 05:35:39;;;;;;;;;5.00;4.83;;;;;8.24;53.28;101219.69;2044889;28;2741009;-75
2023/03/16 05:36:52;;;;;;;;;5.00;4.67;;;;;8.24;53.67;101219.69;2052104;27;2750272;-75
2023/03/16 05:38:07;;;;;;;;;6.67;4.00;;;;;8.22;53.76;101217.09;2044532;28;2746124;-75
2023/03/16 05:39:22;;;;;;;;;5.00;4.83;;;;;8.23;53.89;101216.19;2042981;28;2750265;-75
2023/03/16 05:40:36;;;;;;;;;4.50;3.00;;;;;8.22;53.55;101219.72;2044488;28;2740887;-75
2023/03/16 05:41:49;;;;;;;;;4.17;4.17;;;;;8.22;53.23;101223.19;2020201;28;2754483;-75
2023/03/16 05:43:03;;;;;;;;;6.83;3.33;;;;;8.22;53.83;101219.72;2042798;28;2754512;-75